Virgo Phoenix — 3FMO8 — position and weather

sailwx.info

Track history (hours):
 
Tides and Currents Weather Stations Pressure Air Temp Water Temp Dewpoint Dewpoint Depression Visibility Wind Speed Wind Dir Waves Ship Positions

Virgo Phoenix

Last reported at 2014-Nov-26 00:29 UTC. Time now 2014-Nov-29 01:15 UTC.
Position N 31°03' E 122°10'.

Length 96 m; draft 5 m.

Type: Ship (hazmat cat B). MMSI: 370795000.

Date/timePositionNaut miles runAvg speedWind from/ knotsBaromVisibWave heightAir tempDewpointWater temp
2014-Nov-26 00:29N 31°03' E 122°10'1212.4
2014-Nov-25 23:33N 31°06' E 121°57'1313.4
2014-Nov-25 22:33N 31°15' E 121°46'1212.4
2014-Nov-25 21:33N 31°23' E 121°35'9 9.1
2014-Nov-25 20:33N 31°29' E 121°26'1212.2
2014-Nov-25 19:33N 31°37' E 121°16'1212.2
2014-Nov-25 18:33N 31°45' E 121°05'1211.7
2014-Nov-25 17:33N 31°52' E 120°53'1211.9
2014-Nov-25 16:33N 32°00' E 120°44'1212.5
2014-Nov-25 15:34N 32°04' E 120°30'1212.4
2014-Nov-25 14:33N 31°57' E 120°18'1313.1
2014-Nov-25 13:34N 31°57' E 120°03'0 0.1
2014-Nov-25 12:11N 31°57' E 120°02'0 0.0
2014-Nov-25 08:29N 31°57' E 120°02'0 0.0
2014-Nov-25 07:29N 31°57' E 120°02'0 0.0
2014-Nov-25 06:29N 31°57' E 120°02'0 0.0
2014-Nov-24 23:16N 31°57' E 120°02'0 0.0
2014-Nov-24 22:28N 31°57' E 120°02'0 0.0
2014-Nov-24 21:29N 31°57' E 120°02'0 0.0
2014-Nov-24 20:29N 31°57' E 120°02'0 0.0
2014-Nov-24 16:11N 31°57' E 120°02'0 0.3
2014-Nov-24 15:33N 31°57' E 120°03'8 7.8
2014-Nov-24 14:31N 31°56' E 120°12'9 9.4
2014-Nov-24 13:32N 31°60' E 120°22'10 9.2
2014-Nov-24 12:29N 32°04' E 120°32'13 9.8
2014-Nov-24 11:07N 32°01' E 120°47'610.7
2014-Nov-24 10:33N 31°56' E 120°52'1110.4
2014-Nov-24 09:30N 31°47' E 120°59'1110.7
2014-Nov-24 08:31N 31°42' E 121°10'1111.8
2014-Nov-24 07:33N 31°34' E 121°19'1110.9
2014-Nov-24 06:33N 31°27' E 121°29'1110.5
2014-Nov-24 05:33N 31°21' E 121°39'1312.6
2014-Nov-24 04:33N 31°12' E 121°50'1313.3
2014-Nov-24 03:34N 31°05' E 122°03'1211.8
2014-Nov-24 02:33N 31°03' E 122°16'20 1.1
2014-Nov-23 07:31N 31°01' E 122°40'0 0.0
2014-Nov-22 22:25N 31°01' E 122°40'4 0.2
2014-Nov-21 22:32N 30°60' E 122°35'  
2014-Nov-18 06:33N 35°17' E 139°45'1010.4
2014-Nov-18 05:33N 35°27' E 139°47'8 0.2
2014-Nov-16 06:31N 35°31' E 139°55'1313.0
2014-Nov-16 05:33N 35°22' E 139°45'  
Track history (hours):
 
Tides and Currents Weather Stations Pressure Air Temp Water Temp Dewpoint Dewpoint Depression Visibility Wind Speed Wind Dir Waves Ship Positions

Virgo Phoenix

Last reported at 2014-Nov-26 00:29 UTC. Time now 2014-Nov-29 01:15 UTC.
Position N 31°03' E 122°10'.

Length 96 m; draft 5 m.

Type: Ship (hazmat cat B). MMSI: 370795000.

Date/timePositionNaut miles runAvg speedWind from/ knotsBaromVisibWave heightAir tempDewpointWater temp
2014-Nov-26 00:29N 31°03' E 122°10'1212.4
2014-Nov-25 23:33N 31°06' E 121°57'1313.4
2014-Nov-25 22:33N 31°15' E 121°46'1212.4
2014-Nov-25 21:33N 31°23' E 121°35'9 9.1
2014-Nov-25 20:33N 31°29' E 121°26'1212.2
2014-Nov-25 19:33N 31°37' E 121°16'1212.2
2014-Nov-25 18:33N 31°45' E 121°05'1211.7
2014-Nov-25 17:33N 31°52' E 120°53'1211.9
2014-Nov-25 16:33N 32°00' E 120°44'1212.5
2014-Nov-25 15:34N 32°04' E 120°30'1212.4
2014-Nov-25 14:33N 31°57' E 120°18'1313.1
2014-Nov-25 13:34N 31°57' E 120°03'0 0.1
2014-Nov-25 12:11N 31°57' E 120°02'0 0.0
2014-Nov-25 08:29N 31°57' E 120°02'0 0.0
2014-Nov-25 07:29N 31°57' E 120°02'0 0.0
2014-Nov-25 06:29N 31°57' E 120°02'0 0.0
2014-Nov-24 23:16N 31°57' E 120°02'0 0.0
2014-Nov-24 22:28N 31°57' E 120°02'0 0.0
2014-Nov-24 21:29N 31°57' E 120°02'0 0.0
2014-Nov-24 20:29N 31°57' E 120°02'0 0.0
2014-Nov-24 16:11N 31°57' E 120°02'0 0.3
2014-Nov-24 15:33N 31°57' E 120°03'8 7.8
2014-Nov-24 14:31N 31°56' E 120°12'9 9.4
2014-Nov-24 13:32N 31°60' E 120°22'10 9.2
2014-Nov-24 12:29N 32°04' E 120°32'13 9.8
2014-Nov-24 11:07N 32°01' E 120°47'610.7
2014-Nov-24 10:33N 31°56' E 120°52'1110.4
2014-Nov-24 09:30N 31°47' E 120°59'1110.7
2014-Nov-24 08:31N 31°42' E 121°10'1111.8
2014-Nov-24 07:33N 31°34' E 121°19'1110.9
2014-Nov-24 06:33N 31°27' E 121°29'1110.5
2014-Nov-24 05:33N 31°21' E 121°39'1312.6
2014-Nov-24 04:33N 31°12' E 121°50'1313.3
2014-Nov-24 03:34N 31°05' E 122°03'1211.8
2014-Nov-24 02:33N 31°03' E 122°16'20 1.1
2014-Nov-23 07:31N 31°01' E 122°40'0 0.0
2014-Nov-22 22:25N 31°01' E 122°40'4 0.2
2014-Nov-21 22:32N 30°60' E 122°35'  
2014-Nov-18 06:33N 35°17' E 139°45'1010.4
2014-Nov-18 05:33N 35°27' E 139°47'8 0.2
2014-Nov-16 06:31N 35°31' E 139°55'1313.0
2014-Nov-16 05:33N 35°22' E 139°45'  

Dump ship's entire track history